Aviation Digital Data Service (ADDS)

Output produced by METARs form (0824 UTC 26 January 2015)
found at http://aviationweather.gov/adds/metars/
 
KBDR 260530Z 2606/2706 02011KT P6SM BKN080 
     FM260800 03012KT P6SM BKN040 
     FM261200 04014KT P6SM BKN030 
     TEMPO 2613/2616 3SM -SN BR BKN015 
     FM261600 05013G20KT 1SM -SN BR BKN007 
     FM261900 05018G25KT 3/4SM -SN BR BKN007 
     FM262300 04023G32KT 1/2SM SN FZFG VV005 
     FM270400 02025G37KT 1/4SM +SN FZFG VV004